Guarabira, Brazil
Current Conditions -  °F | °C
As of 4:00 PM on Thursday 30 Oct 2014 (Local Time) from SBKG Reporting Station
Few Clouds Few Clouds  
Wind Chill: 82°   Ceiling: Unl
Heat Index: 83°   Visibility: 6mi
Dew Point: 63°   Wind: 16mph
Humidity: 51%   Direction: 130°SE
Pressure: 29.94"   Gusts: NA
Location:  6.85°S, 35.49°W
Report Text: SBKG 301900Z 13014KT 9999 FEW040 28/17 Q1014
Loading
Personal Weather Stations






























Interactive Weather Map
Tropical Storm Tracking
New forecast layout! Learn more

10-Day Weather Forecast

Advertisements
Track Severe Weather on mobile